Time;durP1;ratioP1;P1;durP2;ratioP2;P2;SDS_P1;SDS_P2;PMS_P1;PMS_P2;Temp;Humidity;BMP_temperature;BMP_pressure;BME280_temperature;BME280_humidity;BME280_pressure;Samples;Min_cycle;Max_cycle;Signal;HPM_P1;HPM_P2
2021/12/19 00:08:26;;;;;;;7.83;3.97;;;;;;;-0.20;100.00;101277.81;5052663;28;20025;-73
2021/12/19 00:10:07;;;;;;;6.30;4.07;;;;;;;-0.23;100.00;101286.78;5052579;28;20036;-72
2021/12/19 00:12:33;;;;;;;7.13;3.87;;;;;;;-0.26;100.00;101281.41;5053008;28;20017;-72
2021/12/19 00:14:58;;;;;;;9.30;4.20;;;;;;;-0.28;100.00;101277.84;5050655;28;20406;-73
2021/12/19 00:17:24;;;;;;;6.23;3.67;;;;;;;-0.17;100.00;101278.06;5052575;28;20029;-73
2021/12/19 00:19:49;;;;;;;8.90;4.43;;;;;;;-0.41;100.00;101230.13;5052285;28;20064;-73
2021/12/19 00:22:15;;;;;;;7.37;4.43;;;;;;;-0.07;100.00;101281.50;5072556;28;20048;-72
2021/12/19 00:24:40;;;;;;;5.47;3.73;;;;;;;-0.18;100.00;101283.91;5075081;28;21272;-72
2021/12/19 00:27:06;;;;;;;6.93;3.93;;;;;;;-0.08;100.00;101278.03;5072578;28;20025;-73
2021/12/19 00:29:31;;;;;;;6.50;3.90;;;;;;;0.01;100.00;101278.00;5071113;28;20028;-74
2021/12/19 00:31:56;;;;;;;7.43;3.67;;;;;;;-0.10;100.00;101264.34;5071697;28;20490;-73
2021/12/19 00:34:23;;;;;;;6.50;4.30;;;;;;;-0.12;100.00;101263.28;5072007;28;20462;-74
2021/12/19 00:36:48;;;;;;;6.03;3.80;;;;;;;-0.04;100.00;101261.44;5087959;28;20032;-72
2021/12/19 00:39:14;;;;;;;6.53;4.00;;;;;;;0.03;100.00;101281.56;5072237;28;20024;-72
2021/12/19 00:41:40;;;;;;;7.90;4.30;;;;;;;-0.29;100.00;101216.03;5072098;28;20021;-72
2021/12/19 00:44:14;;;;;;;8.03;3.53;;;;;;;0.04;100.00;101268.13;5070410;28;20032;-72
2021/12/19 00:46:53;;;;;;;5.60;3.53;;;;;;;0.02;100.00;101271.28;5071122;28;20033;-72
2021/12/19 00:49:22;;;;;;;5.82;3.50;;;;;;;-0.07;100.00;101261.19;5071699;28;20028;-72
2021/12/19 00:51:48;;;;;;;5.90;3.88;;;;;;;-0.04;100.00;101262.34;5071091;28;20036;-72
2021/12/19 00:54:14;;;;;;;5.63;3.50;;;;;;;-0.02;100.00;101262.50;5070541;28;20017;-72
2021/12/19 00:56:42;;;;;;;5.43;3.70;;;;;;;-0.08;100.00;101252.66;5071088;28;20040;-73
2021/12/19 00:59:09;;;;;;;7.43;4.87;;;;;;;-0.16;100.00;101238.38;5071339;28;20016;-72
2021/12/19 01:01:36;;;;;;;6.80;4.27;;;;;;;-0.08;100.00;101226.38;5069493;28;20166;-71
2021/12/19 01:04:10;;;;;;;6.40;4.27;;;;;;;-0.10;100.00;101231.34;5069306;28;20498;-72
2021/12/19 01:06:39;;;;;;;18.10;9.37;;;;;;;-0.09;100.00;101234.75;5068883;28;20020;-74
2021/12/19 01:09:07;;;;;;;12.00;7.15;;;;;;;-0.07;100.00;101240.88;5051077;28;20163;-72
2021/12/19 01:11:33;;;;;;;7.13;5.23;;;;;;;-0.11;100.00;101234.63;5071079;28;20040;-72
2021/12/19 01:14:00;;;;;;;8.03;3.97;;;;;;;-0.31;100.00;101220.09;5071429;28;20032;-72
2021/12/19 01:16:25;;;;;;;7.37;3.83;;;;;;;-0.34;100.00;101243.53;5070264;28;20024;-73
2021/12/19 01:18:50;;;;;;;7.47;3.77;;;;;;;-0.87;100.00;101138.88;5071179;28;20061;-73
2021/12/19 01:21:16;;;;;;;7.80;3.93;;;;;;;-0.43;100.00;101207.16;5086710;28;20067;-73
2021/12/19 01:23:42;;;;;;;6.77;4.00;;;;;;;-0.26;100.00;101226.50;5071192;28;20043;-73
2021/12/19 01:26:08;;;;;;;13.90;6.47;;;;;;;-0.26;100.00;101218.88;5071296;28;20071;-73
2021/12/19 01:28:34;;;;;;;25.50;8.80;;;;;;;-0.32;100.00;101210.69;5052930;28;20028;-73
2021/12/19 01:30:59;;;;;;;33.30;12.03;;;;;;;-0.31;100.00;101202.34;5071190;28;20040;-73
2021/12/19 01:33:25;;;;;;;19.00;6.83;;;;;;;-0.43;100.00;101206.28;5085674;28;20040;-74
2021/12/19 01:35:50;;;;;;;6.27;3.80;;;;;;;-0.85;100.00;101187.19;5071382;28;20028;-73
2021/12/19 01:38:16;;;;;;;5.37;3.67;;;;;;;-0.72;100.00;101199.38;5071020;28;20123;-73
2021/12/19 01:40:42;;;;;;;5.27;3.50;;;;;;;-0.61;100.00;101200.38;5070780;28;20103;-74
2021/12/19 01:43:07;;;;;;;10.23;7.53;;;;;;;-0.47;100.00;101196.56;5070135;28;20028;-73
2021/12/19 01:45:36;;;;;;;16.80;14.33;;;;;;;-0.67;100.00;101147.44;5070589;28;20036;-72
2021/12/19 01:48:04;;;;;;;15.23;13.63;;;;;;;-0.44;100.00;101179.13;5070697;28;20048;-72
2021/12/19 01:50:31;;;;;;;11.80;8.60;;;;;;;-0.45;100.00;101187.47;5070564;28;20490;-72
2021/12/19 01:52:58;;;;;;;10.60;8.57;;;;;;;-0.50;100.00;101167.66;5052403;28;20068;-74
2021/12/19 01:55:24;;;;;;;11.23;8.60;;;;;;;-0.48;100.00;101156.78;5069956;28;20032;-71
2021/12/19 01:57:50;;;;;;;42.53;15.27;;;;;;;-0.41;100.00;101169.25;5070324;28;20031;-74
2021/12/19 02:00:23;;;;;;;28.30;10.67;;;;;;;-0.38;100.00;101159.38;5070695;28;20063;-70
2021/12/19 02:02:49;;;;;;;7.67;5.17;;;;;;;-0.30;100.00;101163.50;5070795;28;20119;-71
2021/12/19 02:05:14;;;;;;;6.43;4.63;;;;;;;-0.19;100.00;101155.25;5069858;28;20123;-72
2021/12/19 02:07:46;;;;;;;7.93;4.03;;;;;;;-0.06;100.00;101151.28;5069529;28;20030;-72
2021/12/19 02:10:12;;;;;;;6.30;4.10;;;;;;;0.03;100.00;101138.53;5067813;28;20028;-72
2021/12/19 02:12:39;;;;;;;7.00;4.57;;;;;;;-0.08;100.00;101152.78;5069875;28;20023;-72
2021/12/19 02:15:05;;;;;;;7.40;5.17;;;;;;;-0.46;100.00;101113.03;5069322;28;20029;-72
2021/12/19 02:17:30;;;;;;;8.00;4.60;;;;;;;-0.30;100.00;101157.53;5069395;28;20024;-72
2021/12/19 02:19:57;;;;;;;10.83;8.13;;;;;;;-0.25;100.00;101144.53;5069105;28;20059;-72
2021/12/19 02:22:22;;;;;;;9.60;5.40;;;;;;;-0.14;100.00;101149.69;5069644;28;20119;-72
2021/12/19 02:24:48;;;;;;;5.93;4.13;;;;;;;-0.11;100.00;101122.03;5069485;28;20100;-72
2021/12/19 02:27:13;;;;;;;7.10;4.00;;;;;;;0.04;100.00;101133.59;5069750;28;20074;-73
2021/12/19 02:29:39;;;;;;;5.70;3.70;;;;;;;0.11;100.00;101130.84;5069816;28;20024;-72
2021/12/19 02:32:06;;;;;;;7.20;3.70;;;;;;;0.25;100.00;101136.25;5070575;28;20449;-72
2021/12/19 02:34:38;;;;;;;5.77;3.97;;;;;;;0.25;100.00;101137.16;5070208;28;20106;-72
2021/12/19 02:37:32;;;;;;;6.73;4.07;;;;;;;-0.48;100.00;101131.41;5070193;28;20052;-70
2021/12/19 02:50:35;;;;;;;6.87;4.60;;;;;;;-0.23;100.00;101114.22;5067249;28;20480;-73
2021/12/19 02:53:00;;;;;;;7.23;4.07;;;;;;;-0.23;100.00;101124.38;5069632;28;20028;-72
2021/12/19 02:55:26;;;;;;;9.60;5.10;;;;;;;-0.40;100.00;101122.84;5069707;28;20051;-72
2021/12/19 02:57:51;;;;;;;7.07;4.30;;;;;;;-0.66;100.00;101114.63;5069937;28;20744;-71
2021/12/19 03:00:22;;;;;;;5.97;3.90;;;;;;;-0.69;100.00;101096.56;5070139;28;20037;-71
2021/12/19 03:02:47;;;;;;;7.80;4.83;;;;;;;-0.63;100.00;101111.47;5070228;28;20028;-70
2021/12/19 03:05:13;;;;;;;7.10;4.47;;;;;;;-0.59;100.00;101123.69;5067323;28;20036;-71
2021/12/19 03:07:42;;;;;;;21.17;8.77;;;;;;;-0.59;100.00;101105.03;5069837;28;20021;-76
2021/12/19 03:18:10;;;;;;;8.83;4.97;;;;;;;-0.38;100.00;101123.88;5069493;28;20082;-76
2021/12/19 03:20:37;;;;;;;10.60;6.40;;;;;;;-0.55;100.00;101124.84;5070004;28;20131;-76
2021/12/19 03:23:05;;;;;;;7.97;4.90;;;;;;;-0.76;100.00;101083.19;5069981;28;20024;-76
2021/12/19 03:25:32;;;;;;;8.37;4.80;;;;;;;-0.61;100.00;101106.53;5069972;28;20052;-76
2021/12/19 03:27:59;;;;;;;11.40;7.90;;;;;;;-0.69;100.00;101116.84;5071937;28;20033;-76
2021/12/19 03:30:25;;;;;;;9.90;6.03;;;;;;;-0.72;100.00;101093.78;5073366;28;20119;-76
2021/12/19 03:32:51;;;;;;;11.13;7.30;;;;;;;-0.55;100.00;101104.56;5073289;28;20104;-75
2021/12/19 03:35:16;;;;;;;10.47;6.83;;;;;;;-0.54;100.00;101106.34;5073662;28;20029;-75
2021/12/19 03:37:43;;;;;;;9.93;6.50;;;;;;;-0.63;100.00;101081.03;5073344;28;20033;-76
2021/12/19 03:40:12;;;;;;;10.37;6.30;;;;;;;-0.54;100.00;101096.22;5073316;28;20427;-75
2021/12/19 03:42:56;;;;;;;12.98;7.15;;;;;;;-0.62;100.00;101098.06;5073469;28;20060;-71
2021/12/19 03:45:24;;;;;;;13.73;7.53;;;;;;;-0.55;100.00;101079.19;5073087;28;20029;-72
2021/12/19 03:47:50;;;;;;;18.17;8.10;;;;;;;-0.47;100.00;101079.91;5072924;28;20051;-71
2021/12/19 03:50:20;;;;;;;18.33;8.77;;;;;;;-0.50;100.00;101090.66;5072251;28;20484;-71
2021/12/19 03:52:46;;;;;;;19.17;8.87;;;;;;;-0.71;100.00;101092.13;5073064;28;20086;-71
2021/12/19 03:55:12;;;;;;;19.90;9.37;;;;;;;-0.74;100.00;101085.13;5072570;28;20017;-71
2021/12/19 03:57:37;;;;;;;20.07;10.10;;;;;;;-0.69;100.00;101076.28;5072362;28;20100;-71
2021/12/19 04:00:11;;;;;;;16.63;9.57;;;;;;;-0.62;100.00;101079.38;5072293;28;20027;-71
2021/12/19 04:02:37;;;;;;;17.27;8.93;;;;;;;-0.56;100.00;101074.88;5070476;28;20056;-71
2021/12/19 04:05:03;;;;;;;16.00;8.77;;;;;;;-0.53;100.00;101075.16;5071903;28;20040;-71
2021/12/19 04:07:28;;;;;;;13.80;8.67;;;;;;;-0.80;100.00;101049.06;5209687;22;21024;-71
2021/12/19 04:09:54;;;;;;;8.53;5.30;;;;;;;-0.76;100.00;101068.00;5073140;28;20031;-70
2021/12/19 04:12:26;;;;;;;8.60;5.30;;;;;;;-1.07;100.00;101063.53;5074160;28;20016;-71
2021/12/19 04:14:52;;;;;;;14.50;6.87;;;;;;;-1.26;100.00;101073.56;5071876;28;20032;-70
2021/12/19 04:17:17;;;;;;;14.40;7.10;;;;;;;-1.32;100.00;101063.78;5060863;28;20021;-71
2021/12/19 04:19:43;;;;;;;12.00;7.17;;;;;;;-1.13;100.00;101070.56;5063693;28;20025;-70
2021/12/19 04:22:09;;;;;;;10.97;6.70;;;;;;;-1.14;100.00;101058.63;5060629;28;20024;-72
2021/12/19 04:24:35;;;;;;;11.00;5.57;;;;;;;-1.43;100.00;101069.47;5060522;28;20479;-70
2021/12/19 04:27:00;;;;;;;10.93;6.33;;;;;;;-1.76;100.00;101059.56;5055834;28;20047;-70
2021/12/19 04:29:26;;;;;;;12.23;7.50;;;;;;;-1.66;100.00;101067.28;5055881;28;20399;-70
2021/12/19 04:31:53;;;;;;;8.00;5.17;;;;;;;-1.55;100.00;101079.31;5056514;28;20128;-71
2021/12/19 04:34:19;;;;;;;10.50;6.23;;;;;;;-1.50;100.00;101084.81;5061374;28;20028;-70
2021/12/19 04:36:48;;;;;;;9.43;6.50;;;;;;;-1.55;100.00;101059.06;5059404;28;20043;-70
2021/12/19 04:39:27;;;;;;;9.60;5.30;;;;;;;-1.65;100.00;101026.91;5057493;28;20017;-70
2021/12/19 04:53:16;;;;;;;9.23;5.77;;;;;;;-1.17;100.00;101044.03;5068367;28;20038;-70
2021/12/19 05:00:55;;;;;;;8.57;4.87;;;;;;;-1.05;100.00;101028.19;5061381;28;20106;-70
2021/12/19 05:14:07;;;;;;;11.17;5.50;;;;;;;-1.19;100.00;101026.91;5061932;28;20052;-71
2021/12/19 05:16:35;;;;;;;10.33;6.10;;;;;;;-1.45;100.00;100972.19;5063081;28;20036;-71
2021/12/19 05:19:07;;;;;;;9.13;5.27;;;;;;;-1.24;100.00;101013.81;5064846;28;20039;-71
2021/12/19 05:21:35;;;;;;;10.83;6.30;;;;;;;-1.07;100.00;101027.13;5063803;28;20028;-70
2021/12/19 05:26:26;;;;;;;19.03;7.00;;;;;;;-1.32;100.00;101022.38;5063529;28;20407;-70
2021/12/19 05:28:52;;;;;;;10.73;5.20;;;;;;;-1.47;100.00;101034.44;5063504;28;20020;-71
2021/12/19 05:31:21;;;;;;;9.47;5.37;;;;;;;-1.66;100.00;101029.31;5063980;28;20057;-71
2021/12/19 05:33:47;;;;;;;9.93;5.00;;;;;;;-1.71;100.00;101018.72;5063500;28;20489;-71
2021/12/19 05:46:56;;;;;;;10.70;6.03;;;;;;;-1.55;100.00;101008.41;5070000;28;20082;-72
2021/12/19 05:49:22;;;;;;;10.20;6.37;;;;;;;-1.61;100.00;101017.09;5069609;28;20016;-72
2021/12/19 05:51:47;;;;;;;13.27;6.47;;;;;;;-1.48;100.00;101012.44;5070056;28;20033;-72
2021/12/19 05:54:13;;;;;;;31.97;16.37;;;;;;;-1.60;100.00;101011.28;5069966;28;20082;-72
2021/12/19 05:56:39;;;;;;;24.70;13.30;;;;;;;-1.50;100.00;101017.31;5068459;28;20028;-75
2021/12/19 05:59:06;;;;;;;56.07;30.53;;;;;;;-1.38;100.00;101020.13;5069272;28;20416;-71
2021/12/19 06:01:32;;;;;;;61.73;31.27;;;;;;;-1.44;100.00;100993.34;5051472;28;20012;-73
2021/12/19 06:03:57;;;;;;;31.07;17.07;;;;;;;-1.29;100.00;101007.44;5069577;28;20025;-73
2021/12/19 06:06:26;;;;;;;11.83;7.93;;;;;;;-1.31;100.00;101014.00;5069672;28;20028;-72
2021/12/19 06:08:52;;;;;;;13.33;8.40;;;;;;;-1.27;100.00;101020.22;5069459;28;20053;-72
2021/12/19 06:11:17;;;;;;;12.73;6.80;;;;;;;-1.41;100.00;101011.34;5052372;28;20036;-74
2021/12/19 06:13:43;;;;;;;11.23;6.57;;;;;;;-1.44;100.00;101011.97;5050639;28;20411;-74
2021/12/19 06:16:09;;;;;;;9.03;5.57;;;;;;;-1.55;100.00;101002.47;5050730;28;20040;-74
2021/12/19 06:18:35;;;;;;;8.10;5.30;;;;;;;-1.82;100.00;101001.63;5050570;28;20021;-74
2021/12/19 06:21:00;;;;;;;11.00;5.60;;;;;;;-2.14;100.00;101012.13;5050242;28;20029;-73
2021/12/19 06:23:25;;;;;;;12.00;6.40;;;;;;;-2.29;100.00;100996.38;5050295;28;20029;-74
2021/12/19 06:25:51;;;;;;;11.13;6.23;;;;;;;-2.28;100.00;101020.88;5050674;28;20178;-74
2021/12/19 06:28:18;;;;;;;9.97;6.40;;;;;;;-2.36;100.00;100999.03;5061500;28;20056;-74
2021/12/19 06:30:45;;;;;;;12.00;7.87;;;;;;;-2.31;100.00;101013.03;5064941;28;20028;-74
2021/12/19 06:33:10;;;;;;;15.53;10.43;;;;;;;-2.33;100.00;101001.84;5070688;28;20043;-74
2021/12/19 06:35:36;;;;;;;13.70;7.43;;;;;;;-2.18;100.00;101018.53;5070621;28;20471;-74
2021/12/19 06:38:02;;;;;;;10.27;5.37;;;;;;;-2.17;100.00;101010.19;5070569;28;20107;-74
2021/12/19 06:40:28;;;;;;;8.07;4.87;;;;;;;-2.25;100.00;101008.56;5070655;28;20501;-73
2021/12/19 06:42:53;;;;;;;29.87;22.33;;;;;;;-2.12;100.00;101011.53;5070315;28;20033;-73
2021/12/19 06:45:20;;;;;;;21.80;16.87;;;;;;;-2.04;100.00;101008.84;5070506;28;20035;-73
2021/12/19 06:47:46;;;;;;;14.90;9.40;;;;;;;-1.89;100.00;101005.25;5070426;28;20033;-73
2021/12/19 06:50:12;;;;;;;10.70;6.87;;;;;;;-1.76;100.00;101009.81;5070232;28;20029;-73
2021/12/19 06:52:39;;;;;;;13.47;7.00;;;;;;;-1.64;100.00;101003.38;5070350;28;20111;-74
2021/12/19 06:55:06;;;;;;;12.83;8.20;;;;;;;-1.50;100.00;100991.13;5052485;28;20032;-74
2021/12/19 06:57:32;;;;;;;15.33;11.37;;;;;;;-1.31;100.00;100988.66;5018161;28;20043;-73
2021/12/19 06:59:57;;;;;;;15.60;10.77;;;;;;;-1.19;100.00;101004.13;5070193;28;20029;-73
2021/12/19 07:02:23;;;;;;;15.93;10.90;;;;;;;-1.19;100.00;101001.59;5072010;28;20032;-74
2021/12/19 07:04:49;;;;;;;15.07;10.13;;;;;;;-1.10;100.00;100994.81;5074086;28;20028;-74
2021/12/19 07:07:14;;;;;;;11.53;7.83;;;;;;;-1.05;100.00;100995.25;5074115;28;20036;-74
2021/12/19 07:09:40;;;;;;;11.20;8.10;;;;;;;-0.96;100.00;100982.53;5073104;28;20072;-74
2021/12/19 07:12:08;;;;;;;12.00;8.50;;;;;;;-0.90;100.00;100968.75;5073730;28;20059;-74
2021/12/19 07:14:33;;;;;;;12.13;7.57;;;;;;;-0.73;100.00;100982.09;5055975;28;20036;-74
2021/12/19 07:16:59;;;;;;;13.00;7.37;;;;;;;-0.67;100.00;100978.44;5074016;28;20028;-74
2021/12/19 07:19:25;;;;;;;12.27;7.80;;;;;;;-0.75;100.00;100951.50;5074044;28;20055;-74
2021/12/19 07:21:51;;;;;;;12.63;8.10;;;;;;;-0.42;100.00;100967.97;5073986;28;20024;-74
2021/12/19 07:24:16;;;;;;;13.97;8.60;;;;;;;-0.30;100.00;100970.66;5073969;28;20033;-74
2021/12/19 07:26:41;;;;;;;16.23;9.50;;;;;;;-0.24;100.00;100958.53;5073445;28;20032;-75
2021/12/19 07:29:07;;;;;;;18.57;11.67;;;;;;;-0.43;100.00;100906.94;5073776;28;20028;-74
2021/12/19 07:31:36;;;;;;;25.87;13.93;;;;;;;-0.03;100.00;100971.31;5073768;28;20028;-74
2021/12/19 07:34:02;;;;;;;21.80;13.60;;;;;;;0.09;100.00;100967.31;5073485;28;20032;-74
2021/12/19 07:36:35;;;;;;;17.47;11.27;;;;;;;0.14;100.00;100955.91;5073579;28;20060;-75
2021/12/19 07:39:07;;;;;;;15.63;9.17;;;;;;;0.35;100.00;100971.22;5073580;28;20020;-74
2021/12/19 07:41:33;;;;;;;18.60;11.40;;;;;;;0.35;100.00;100961.06;5073887;28;20035;-74
2021/12/19 07:43:59;;;;;;;20.50;12.37;;;;;;;0.55;100.00;100977.09;5073573;28;20045;-75
2021/12/19 07:46:24;;;;;;;13.20;9.07;;;;;;;0.60;100.00;100965.72;5073582;28;20069;-74
2021/12/19 07:48:50;;;;;;;15.77;10.30;;;;;;;0.62;100.00;100948.91;5073422;28;20043;-75
2021/12/19 07:51:15;;;;;;;13.97;9.00;;;;;;;0.48;100.00;100965.53;5073367;28;20040;-74
2021/12/19 07:53:41;;;;;;;15.53;8.77;;;;;;;0.42;100.00;100960.81;5073326;28;20397;-74
2021/12/19 07:56:06;;;;;;;16.03;9.57;;;;;;;0.27;100.00;100962.06;5055247;28;20032;-74
2021/12/19 07:58:33;;;;;;;14.63;9.63;;;;;;;0.26;100.00;100955.19;5073136;28;20569;-74
2021/12/19 08:00:58;;;;;;;11.30;6.63;;;;;;;0.03;100.00;100928.72;5072732;28;20115;-74
2021/12/19 08:03:23;;;;;;;15.97;8.43;;;;;;;0.27;100.00;100947.69;5073315;28;20120;-74
2021/12/19 08:05:50;;;;;;;14.43;8.80;;;;;;;0.32;100.00;100946.47;5073227;28;20039;-74
2021/12/19 08:08:18;;;;;;;13.27;9.00;;;;;;;0.47;100.00;100946.88;5055086;28;20109;-74
2021/12/19 08:13:09;;;;;;;13.27;8.37;;;;;;;0.13;100.00;100902.47;5072715;28;20058;-74
2021/12/19 08:15:37;;;;;;;13.90;8.50;;;;;;;0.45;100.00;100935.69;5037101;28;20043;-74
2021/12/19 08:18:03;;;;;;;12.07;7.97;;;;;;;0.57;100.00;100929.84;5072560;28;20031;-74
2021/12/19 08:20:28;;;;;;;14.73;9.33;;;;;;;0.33;100.00;100886.38;5070799;28;20121;-74
2021/12/19 08:22:55;;;;;;;13.87;9.23;;;;;;;0.69;100.00;100927.47;5072793;28;20078;-74
2021/12/19 08:25:22;;;;;;;13.33;8.93;;;;;;;0.83;100.00;100915.91;5073057;28;20437;-74
2021/12/19 08:27:48;;;;;;;14.10;9.30;;;;;;;0.75;100.00;100908.53;5072839;28;20029;-74
2021/12/19 08:30:16;;;;;;;13.27;9.43;;;;;;;0.78;100.00;100912.97;5072750;28;20033;-74
2021/12/19 08:32:41;;;;;;;13.53;7.73;;;;;;;0.76;100.00;100915.41;5054465;28;20024;-74
2021/12/19 08:35:09;;;;;;;13.97;8.47;;;;;;;0.92;100.00;100907.41;5072585;28;20094;-74
2021/12/19 08:37:35;;;;;;;13.90;9.67;;;;;;;0.91;100.00;100900.53;5072308;28;20466;-75
2021/12/19 08:40:01;;;;;;;15.23;9.27;;;;;;;1.13;100.00;100897.19;5054201;28;20025;-74
2021/12/19 08:42:28;;;;;;;11.80;8.00;;;;;;;1.15;100.00;100898.22;5072205;28;20153;-74
2021/12/19 08:44:54;;;;;;;13.77;9.13;;;;;;;1.20;100.00;100896.94;5072421;28;20029;-74
2021/12/19 08:47:19;;;;;;;13.17;8.67;;;;;;;1.32;100.00;100897.06;5072178;28;20027;-74
2021/12/19 08:49:45;;;;;;;13.53;9.17;;;;;;;1.47;100.00;100883.78;5072432;28;20379;-75
2021/12/19 08:52:11;;;;;;;13.93;8.47;;;;;;;1.52;100.00;100867.22;5071841;28;20025;-74
2021/12/19 08:54:37;;;;;;;14.57;9.17;;;;;;;1.78;100.00;100872.72;5054034;28;20031;-75
2021/12/19 08:57:03;;;;;;;12.13;7.87;;;;;;;1.64;99.66;100863.09;5070704;28;20029;-75
2021/12/19 08:59:29;;;;;;;11.47;7.67;;;;;;;1.53;99.01;100849.50;5071972;28;20028;-75
2021/12/19 09:02:01;;;;;;;14.03;7.70;;;;;;;1.55;100.00;100847.09;5071970;28;20375;-74
2021/12/19 09:04:26;;;;;;;13.10;8.20;;;;;;;1.63;97.85;100814.63;5071016;28;20024;-74
2021/12/19 09:06:52;;;;;;;11.03;6.57;;;;;;;1.76;97.78;100855.53;5051862;28;20029;-75
2021/12/19 09:09:18;;;;;;;11.37;7.80;;;;;;;1.73;98.78;100855.28;5051747;28;20067;-75
2021/12/19 09:11:44;;;;;;;13.63;8.17;;;;;;;1.85;98.22;100840.97;5051911;28;20130;-77
2021/12/19 09:14:10;;;;;;;56.47;29.77;;;;;;;1.91;98.86;100821.09;5033839;28;20033;-76
2021/12/19 09:16:35;;;;;;;15.80;11.93;;;;;;;2.25;98.28;100826.19;5051340;28;20036;-76
2021/12/19 09:19:01;;;;;;;13.03;8.73;;;;;;;2.43;97.06;100819.06;5051649;28;20071;-77
2021/12/19 09:21:26;;;;;;;11.60;6.15;;;;;;;2.47;92.56;100809.09;5051361;28;20503;-76
2021/12/19 09:23:51;;;;;;;8.50;5.70;;;;;;;2.26;93.46;100801.63;5051302;28;20028;-76
2021/12/19 09:26:17;;;;;;;12.00;7.40;;;;;;;2.24;93.26;100790.44;5051029;28;20028;-75
2021/12/19 09:28:42;;;;;;;12.43;7.13;;;;;;;2.15;95.40;100762.59;5051232;28;20036;-75
2021/12/19 09:31:08;;;;;;;11.50;6.73;;;;;;;2.35;93.69;100765.78;5051491;28;20083;-76
2021/12/19 09:33:33;;;;;;;10.30;6.70;;;;;;;2.16;93.64;100738.03;5033403;28;20020;-76
2021/12/19 09:35:59;;;;;;;9.50;6.70;;;;;;;2.55;93.72;100772.34;5051663;28;20025;-75
2021/12/19 09:38:26;;;;;;;9.37;5.20;;;;;;;2.59;92.10;100774.34;5051430;28;20116;-76
2021/12/19 09:40:58;;;;;;;9.80;5.90;;;;;;;2.59;91.86;100770.13;5051351;28;20090;-75
2021/12/19 09:43:42;;;;;;;11.65;6.38;;;;;;;2.79;92.44;100759.63;5065123;28;20062;-74
2021/12/19 09:46:16;;;;;;;9.70;6.32;;;;;;;2.66;91.90;100715.38;5061896;28;20047;-74
2021/12/19 09:48:46;;;;;;;5.75;3.70;;;;;;;2.75;90.86;100741.56;5059449;28;20035;-74
2021/12/19 09:51:13;;;;;;;9.82;7.47;;;;;;;2.84;91.73;100745.53;5062415;28;20039;-74
2021/12/19 09:53:40;;;;;;;11.35;7.85;;;;;;;2.82;91.19;100730.13;5062483;28;20061;-74
2021/12/19 09:56:06;;;;;;;10.60;6.95;;;;;;;3.06;90.76;100732.66;5057436;28;20056;-74
2021/12/19 09:58:36;;;;;;;10.75;6.93;;;;;;;3.19;89.64;100717.47;5052313;28;20036;-70
2021/12/19 10:01:05;;;;;;;12.68;8.38;;;;;;;2.88;90.23;100673.59;5060369;28;20561;-70
2021/12/19 10:03:32;;;;;;;8.82;6.18;;;;;;;3.28;89.70;100706.09;5050910;28;20545;-71
2021/12/19 10:06:12;;;;;;;9.35;6.20;;;;;;;3.41;89.73;100701.09;5059914;28;20041;-72
2021/12/19 10:08:39;;;;;;;14.75;8.82;;;;;;;3.55;88.81;100687.63;5062697;28;20391;-72
2021/12/19 10:11:13;;;;;;;10.63;7.95;;;;;;;3.70;89.39;100684.31;5062672;28;20039;-72
2021/12/19 10:13:38;;;;;;;8.65;6.18;;;;;;;3.47;87.71;100698.97;5064472;28;20033;-72
2021/12/19 10:16:26;;;;;;;7.75;5.55;;;;;;;3.49;86.72;100678.63;5055487;28;20025;-72
2021/12/19 10:18:53;;;;;;;8.70;4.88;;;;;;;3.65;83.65;100681.47;5059951;28;20029;-71
2021/12/19 10:21:20;;;;;;;9.52;5.63;;;;;;;3.58;85.63;100634.97;5059619;28;20059;-72
2021/12/19 10:23:46;;;;;;;7.63;5.15;;;;;;;4.01;83.30;100668.50;5061331;28;20035;-71
2021/12/19 10:26:12;;;;;;;7.65;4.22;;;;;;;4.04;80.46;100661.06;5061063;28;20028;-71
2021/12/19 10:28:56;;;;;;;7.35;4.35;;;;;;;4.30;82.60;100649.09;5063431;28;20036;-72
2021/12/19 10:31:25;;;;;;;8.60;5.15;;;;;;;4.29;83.39;100661.00;5064778;28;20036;-71
2021/12/19 10:33:52;;;;;;;6.88;4.97;;;;;;;4.38;82.76;100656.47;5063062;28;20129;-71
2021/12/19 10:36:19;;;;;;;7.00;4.32;;;;;;;4.38;81.66;100650.47;5063782;28;20387;-72
2021/12/19 10:38:50;;;;;;;7.80;5.10;;;;;;;4.52;82.50;100656.47;5062887;28;20021;-71
2021/12/19 10:41:20;;;;;;;7.80;5.22;;;;;;;4.23;85.62;100606.94;5063952;28;20080;-71
2021/12/19 10:43:57;;;;;;;9.90;5.63;;;;;;;4.36;85.12;100659.72;5054077;28;20024;-71
2021/12/19 10:46:30;;;;;;;7.80;5.80;;;;;;;4.46;86.09;100645.84;5069155;28;20033;-71
2021/12/19 10:48:57;;;;;;;8.27;5.32;;;;;;;4.55;84.17;100615.78;5068457;28;20036;-70
2021/12/19 10:51:24;;;;;;;6.63;4.55;;;;;;;4.42;82.72;100620.91;5065557;28;20471;-71
2021/12/19 10:53:55;;;;;;;7.07;4.95;;;;;;;4.00;84.79;100573.13;5063709;28;20039;-72
2021/12/19 10:56:29;;;;;;;6.70;4.53;;;;;;;4.25;81.95;100623.25;5063474;28;20490;-71
2021/12/19 10:59:09;;;;;;;7.53;3.92;;;;;;;4.30;79.66;100626.09;5066144;28;20838;-70
2021/12/19 11:01:37;;;;;;;6.68;3.63;;;;;;;4.32;77.22;100624.53;5037900;28;20035;-71
2021/12/19 11:04:17;;;;;;;6.43;4.45;;;;;;;4.44;78.99;100609.97;5070533;28;20035;-71
2021/12/19 11:06:48;;;;;;;5.70;3.90;;;;;;;4.56;78.96;100598.75;5073244;28;20055;-71
2021/12/19 11:09:28;;;;;;;7.38;3.65;;;;;;;4.56;78.23;100603.88;5064599;28;20072;-71
2021/12/19 11:11:58;;;;;;;6.07;3.97;;;;;;;4.65;77.67;100597.66;5071392;28;20060;-72
2021/12/19 11:14:28;;;;;;;5.97;3.75;;;;;;;4.28;77.08;100558.69;5069070;28;20025;-72
2021/12/19 11:17:03;;;;;;;7.22;4.50;;;;;;;4.50;78.43;100594.16;5067237;28;20786;-70
2021/12/19 11:19:30;;;;;;;6.60;4.15;;;;;;;4.27;79.52;100562.88;5064185;28;20028;-72
2021/12/19 11:21:56;;;;;;;7.88;4.88;;;;;;;4.47;79.61;100576.06;5062372;28;20025;-71
2021/12/19 11:24:23;;;;;;;5.35;3.90;;;;;;;4.20;78.91;100542.88;5063462;28;20035;-71
2021/12/19 11:26:54;;;;;;;7.30;4.50;;;;;;;3.89;80.20;100494.91;5061799;28;20031;-73
2021/12/19 11:29:21;;;;;;;7.45;4.43;;;;;;;4.42;80.35;100542.53;5057969;28;20032;-70
2021/12/19 11:31:50;;;;;;;7.95;4.70;;;;;;;4.53;81.24;100558.53;5035528;28;20028;-72
2021/12/19 11:34:21;;;;;;;7.20;4.57;;;;;;;4.43;81.85;100553.66;5036008;28;20040;-71
2021/12/19 11:37:09;;;;;;;8.35;4.95;;;;;;;4.44;83.24;100543.50;5053247;28;20040;-72
2021/12/19 11:39:39;;;;;;;7.38;5.00;;;;;;;4.14;82.08;100507.56;5057763;28;20086;-71
2021/12/19 11:42:07;;;;;;;7.70;4.80;;;;;;;4.33;82.40;100529.19;5057729;28;20486;-70
2021/12/19 11:45:22;;;;;;;9.52;5.25;;;;;;;4.13;82.13;100516.03;5055659;28;20090;-72
2021/12/19 11:47:45;;;;;;;7.60;4.38;;;;;;;4.18;80.80;100506.09;5051298;28;20040;-72
2021/12/19 11:50:23;;;;;;;6.88;4.85;;;;;;;3.99;82.56;100471.72;5052250;28;20025;-72
2021/12/19 11:52:51;;;;;;;8.57;5.35;;;;;;;4.28;84.13;100495.66;5052104;28;20111;-71
2021/12/19 11:55:19;;;;;;;7.80;5.65;;;;;;;4.37;84.40;100495.34;5052180;28;20071;-71
2021/12/19 11:58:06;;;;;;;7.68;5.07;;;;;;;4.42;83.86;100493.09;5051952;28;20033;-70
2021/12/19 12:00:36;;;;;;;8.48;5.32;;;;;;;4.42;83.60;100498.19;5058621;28;20039;-73
2021/12/19 12:03:13;;;;;;;9.32;6.32;;;;;;;4.32;84.07;100477.16;5065969;28;20024;-76
2021/12/19 12:05:39;;;;;;;7.70;5.57;;;;;;;4.44;83.98;100478.75;5072870;28;20036;-74
2021/12/19 12:08:05;;;;;;;9.32;5.88;;;;;;;4.34;83.90;100473.03;5055118;28;20039;-74
2021/12/19 12:10:55;;;;;;;8.57;5.30;;;;;;;4.29;85.05;100471.88;5072919;28;20048;-73
2021/12/19 12:13:24;;;;;;;8.55;5.25;;;;;;;4.18;84.13;100465.22;5072503;28;20028;-74
2021/12/19 12:15:54;;;;;;;8.95;6.25;;;;;;;4.31;84.94;100452.41;5072709;28;20141;-73
2021/12/19 12:18:29;;;;;;;7.63;5.22;;;;;;;4.28;83.87;100436.88;5072586;28;20036;-73
2021/12/19 12:20:55;;;;;;;8.30;6.05;;;;;;;4.51;83.23;100451.09;5051794;28;20031;-74
2021/12/19 12:23:26;;;;;;;7.70;5.15;;;;;;;4.32;82.99;100456.72;5068444;28;20032;-73
2021/12/19 12:25:54;;;;;;;10.20;6.75;;;;;;;4.28;83.70;100448.78;5072621;28;20025;-72
2021/12/19 12:28:20;;;;;;;10.60;5.13;;;;;;;4.36;83.02;100452.69;5066330;28;20029;-73
2021/12/19 12:30:48;;;;;;;12.32;6.35;;;;;;;4.41;83.76;100451.31;5051474;28;20116;-74